Time;durP1;ratioP1;P1;durP2;ratioP2;P2;SDS_P1;SDS_P2;PMS_P1;PMS_P2;Temp;Humidity;BMP_temperature;BMP_pressure;BME280_temperature;BME280_humidity;BME280_pressure;Samples;Min_cycle;Max_cycle;Signal;HPM_P1;HPM_P2
2021/12/18 00:00:28;;;;;;;14.35;6.88;;;;;;;2.17;86.50;100527.16;5089968;28;20044;-21
2021/12/18 00:02:53;;;;;;;14.05;7.13;;;;;;;2.28;86.93;100533.97;5090050;28;20055;-20
2021/12/18 00:05:19;;;;;;;10.40;6.13;;;;;;;2.24;86.69;100515.03;5071564;28;20051;-20
2021/12/18 00:07:44;;;;;;;12.05;6.45;;;;;;;2.17;87.06;100537.69;5089598;28;20085;-20
2021/12/18 00:10:10;;;;;;;12.88;6.57;;;;;;;2.09;87.15;100538.44;5089464;28;20024;-20
2021/12/18 00:12:35;;;;;;;13.10;6.68;;;;;;;1.73;88.16;100530.53;5071594;28;20036;-20
2021/12/18 00:15:01;;;;;;;14.70;7.55;;;;;;;1.95;88.56;100523.19;5089685;28;20024;-21
2021/12/18 00:17:26;;;;;;;13.88;7.40;;;;;;;2.22;87.52;100535.41;5089482;28;20739;-20
2021/12/18 00:19:52;;;;;;;15.45;6.90;;;;;;;2.15;86.72;100522.03;5089362;28;20024;-20
2021/12/18 00:22:17;;;;;;;15.75;7.22;;;;;;;2.11;87.38;100528.59;5089310;28;20039;-20
2021/12/18 00:24:43;;;;;;;15.25;8.48;;;;;;;2.10;87.09;100531.34;5089105;28;20043;-21
2021/12/18 00:27:08;;;;;;;15.05;7.38;;;;;;;2.22;86.50;100535.41;5089238;28;20043;-21
2021/12/18 00:29:34;;;;;;;15.82;7.38;;;;;;;2.24;86.58;100549.22;5070493;28;20051;-20
2021/12/18 00:31:59;;;;;;;13.05;7.40;;;;;;;2.18;86.38;100541.94;5089338;28;20407;-20
2021/12/18 00:34:25;;;;;;;14.95;8.00;;;;;;;2.22;86.70;100551.19;5089409;28;20475;-21
2021/12/18 00:36:51;;;;;;;15.15;7.53;;;;;;;2.18;86.89;100545.41;5089500;28;20503;-20
2021/12/18 00:39:16;;;;;;;14.02;7.85;;;;;;;2.67;86.71;100559.91;5089001;28;20055;-20
2021/12/18 00:44:12;;;;;;;;;;;;;;;2.50;85.71;100562.44;5089492;28;20030;-20
2021/12/18 00:46:41;;;;;;;17.85;9.10;;;;;;;2.41;86.28;100564.19;5089324;28;19908;-20
2021/12/18 00:49:07;;;;;;;17.90;9.25;;;;;;;2.43;86.33;100548.22;5088698;28;20032;-20
2021/12/18 00:51:33;;;;;;;19.02;9.40;;;;;;;2.64;85.37;100547.06;5088656;28;20028;-20
2021/12/18 00:53:59;;;;;;;19.70;9.40;;;;;;;2.48;84.60;100545.13;5088899;28;20098;-20
2021/12/18 00:56:25;;;;;;;19.42;8.50;;;;;;;2.37;84.95;100538.31;5088774;28;20028;-20
2021/12/18 00:58:51;;;;;;;16.63;8.45;;;;;;;2.34;85.26;100543.88;5088644;28;20162;-20
2021/12/18 01:01:20;;;;;;;16.20;8.82;;;;;;;2.17;85.73;100537.69;5088820;28;20079;-20
2021/12/18 01:03:47;;;;;;;19.23;9.63;;;;;;;2.54;84.67;100544.53;5088979;28;20032;-20
2021/12/18 01:06:12;;;;;;;20.02;10.18;;;;;;;2.36;84.86;100534.84;5088271;28;20515;-20
2021/12/18 01:08:38;;;;;;;36.72;27.58;;;;;;;2.38;85.97;100540.78;5088544;28;20021;-20
2021/12/18 01:13:38;;;;;;;18.27;9.57;;;;;;;3.11;83.27;100552.72;5088514;28;20115;-20
2021/12/18 01:16:15;;;;;;;21.73;10.05;;;;;;;2.96;82.31;100541.13;5088401;28;20683;-20
2021/12/18 01:24:09;;;;;;;18.58;10.13;;;;;;;2.69;83.70;100548.22;5073241;28;20050;-20
2021/12/18 01:26:34;;;;;;;21.02;10.38;;;;;;;2.97;82.62;100535.69;5088511;28;20598;-20
2021/12/18 01:29:00;;;;;;;21.17;11.55;;;;;;;2.67;83.12;100534.38;5088064;28;20571;-21
2021/12/18 01:31:26;;;;;;;25.73;12.90;;;;;;;2.35;84.54;100535.84;5088241;28;20086;-20
2021/12/18 01:33:51;;;;;;;24.77;11.95;;;;;;;2.69;84.62;100537.69;5070125;28;20032;-20
2021/12/18 01:36:16;;;;;;;25.40;12.10;;;;;;;2.75;83.66;100542.34;5088306;28;20065;-20
2021/12/18 01:38:42;;;;;;;17.38;9.05;;;;;;;2.47;84.55;100544.28;5070699;28;20034;-20
2021/12/18 01:41:07;;;;;;;19.00;9.05;;;;;;;2.33;85.55;100536.94;5088046;28;20032;-21
2021/12/18 01:44:21;;;;;;;20.08;9.55;;;;;;;2.17;86.33;100532.41;5088345;28;20747;-20
2021/12/18 01:54:11;;;;;;;16.80;7.85;;;;;;;2.24;86.48;100511.56;5058319;28;20842;-20
2021/12/18 01:56:37;;;;;;;17.55;7.80;;;;;;;2.32;85.45;100528.25;5087909;28;20085;-20
2021/12/18 01:59:02;;;;;;;15.70;7.53;;;;;;;2.26;85.83;100522.78;5087794;28;20472;-21
2021/12/18 02:01:28;;;;;;;17.38;7.68;;;;;;;2.46;85.66;100526.03;5087517;28;20419;-20
2021/12/18 02:03:54;;;;;;;15.05;7.43;;;;;;;2.54;84.63;100511.13;5088118;28;20442;-20
2021/12/18 02:06:20;;;;;;;18.95;7.35;;;;;;;2.52;84.54;100509.63;5087892;28;20063;-20
2021/12/18 02:08:45;;;;;;;15.52;7.82;;;;;;;2.59;84.67;100521.16;5087857;28;20024;-20
2021/12/18 02:11:26;;;;;;;16.38;7.60;;;;;;;2.57;84.95;100517.88;5087810;28;20039;-20
2021/12/18 02:21:54;;;;;;;15.95;8.15;;;;;;;2.60;84.59;100496.50;5087591;28;20151;-20
2021/12/18 02:24:23;;;;;;;15.68;7.13;;;;;;;2.65;84.39;100504.75;5069295;28;20028;-21
2021/12/18 02:26:49;;;;;;;15.15;7.97;;;;;;;2.77;83.87;100514.03;5087411;28;20484;-20
2021/12/18 02:29:16;;;;;;;15.75;7.57;;;;;;;2.67;84.81;100513.31;5087739;28;20048;-21
2021/12/18 02:31:42;;;;;;;15.88;7.88;;;;;;;2.99;83.21;100527.66;5087458;28;20511;-21
2021/12/18 02:34:16;;;;;;;16.55;7.68;;;;;;;2.89;82.90;100524.31;5087695;28;20039;-20
2021/12/18 02:36:46;;;;;;;18.75;8.27;;;;;;;3.03;82.45;100523.72;5087481;28;20138;-20
2021/12/18 02:41:45;;;;;;;18.02;8.25;;;;;;;3.38;81.32;100521.84;5087387;28;20403;-20
2021/12/18 02:44:11;;;;;;;18.17;8.73;;;;;;;3.11;81.46;100518.47;5087493;28;20114;-20
2021/12/18 02:46:37;;;;;;;17.58;8.43;;;;;;;2.90;81.97;100502.22;5087634;28;20570;-21
2021/12/18 02:49:08;;;;;;;21.15;9.25;;;;;;;3.28;81.63;100521.16;5087620;28;20157;-21
2021/12/18 02:51:33;;;;;;;19.13;9.00;;;;;;;3.01;82.53;100528.31;5086951;28;20032;-20
2021/12/18 02:53:59;;;;;;;20.35;9.48;;;;;;;2.84;82.82;100529.22;5087215;28;20036;-20
2021/12/18 02:56:24;;;;;;;24.48;10.85;;;;;;;2.81;83.68;100523.28;5087394;28;20024;-20
2021/12/18 02:58:58;;;;;;;19.88;9.00;;;;;;;2.83;83.82;100522.31;5087544;28;20468;-21
2021/12/18 03:01:24;;;;;;;22.58;9.52;;;;;;;2.96;83.69;100520.03;5085843;28;20396;-20
2021/12/18 03:03:51;;;;;;;22.23;9.48;;;;;;;3.04;82.45;100520.06;5088581;28;20053;-21
2021/12/18 03:27:16;;;;;;;23.40;11.00;;;;;;;3.06;81.38;100523.38;5090337;28;20032;-20
2021/12/18 03:29:41;;;;;;;26.67;10.15;;;;;;;3.10;81.61;100526.53;5089861;28;20055;-20
2021/12/18 03:32:07;;;;;;;22.35;9.70;;;;;;;3.01;81.95;100515.13;5090392;28;20510;-20
2021/12/18 03:34:32;;;;;;;21.65;8.93;;;;;;;3.19;82.17;100544.03;5090384;28;20063;-20
2021/12/18 03:36:58;;;;;;;22.35;9.98;;;;;;;2.87;83.48;100539.44;5090718;28;20024;-21
2021/12/18 03:39:23;;;;;;;22.35;8.85;;;;;;;3.01;83.24;100549.41;5090255;28;20032;-22
2021/12/18 03:41:49;;;;;;;53.88;25.65;;;;;;;3.17;82.46;100546.81;5072037;28;20032;-21
2021/12/18 03:44:14;;;;;;;103.85;48.78;;;;;;;3.26;82.25;100547.69;5072012;28;20040;-20
2021/12/18 03:46:40;;;;;;;21.38;10.13;;;;;;;3.41;80.65;100553.16;5090020;28;20028;-20
2021/12/18 03:49:05;;;;;;;20.98;9.27;;;;;;;3.41;80.07;100561.06;5089930;28;20036;-20
2021/12/18 03:51:31;;;;;;;21.65;9.50;;;;;;;3.15;81.93;100559.34;5089936;28;20039;-20
2021/12/18 03:53:56;;;;;;;21.20;9.63;;;;;;;3.46;79.96;100545.59;5071730;28;20039;-20
2021/12/18 03:56:22;;;;;;;22.63;9.20;;;;;;;3.35;80.12;100553.78;5089886;28;20064;-20
2021/12/18 03:58:47;;;;;;;23.20;9.52;;;;;;;3.60;80.18;100558.16;5071885;28;20548;-20
2021/12/18 04:01:12;;;;;;;20.65;8.85;;;;;;;3.57;79.06;100560.28;5089893;28;20032;-20
2021/12/18 04:03:38;;;;;;;19.27;8.85;;;;;;;3.30;80.00;100556.09;5071705;28;20051;-20
2021/12/18 04:06:03;;;;;;;17.60;8.43;;;;;;;3.11;80.24;100558.00;5090419;28;20036;-21
2021/12/18 04:08:29;;;;;;;17.80;8.05;;;;;;;2.92;81.09;100558.22;5089464;28;20036;-21
2021/12/18 04:10:54;;;;;;;20.20;8.95;;;;;;;3.17;79.72;100560.00;5071661;28;20503;-21
2021/12/18 04:13:20;;;;;;;65.60;32.75;;;;;;;3.36;79.58;100571.28;5089752;28;20087;-20
2021/12/18 04:15:46;;;;;;;31.75;16.50;;;;;;;2.76;82.12;100575.59;5070892;28;20071;-20
2021/12/18 04:18:11;;;;;;;23.25;10.45;;;;;;;2.31;84.35;100581.88;5071469;28;20039;-20
2021/12/18 04:20:37;;;;;;;21.65;10.30;;;;;;;2.25;85.25;100571.09;5089525;28;20407;-20
2021/12/18 04:23:02;;;;;;;24.20;12.50;;;;;;;2.82;83.85;100584.69;5089488;28;20028;-20
2021/12/18 04:25:28;;;;;;;26.52;13.07;;;;;;;2.90;83.02;100591.81;5089270;28;20861;-20
2021/12/18 04:27:53;;;;;;;26.60;13.90;;;;;;;2.98;81.87;100583.94;5088717;28;20036;-20
2021/12/18 04:30:19;;;;;;;26.70;13.43;;;;;;;2.97;82.49;100587.56;5089358;28;20028;-21
2021/12/18 04:32:45;;;;;;;26.27;12.73;;;;;;;2.81;83.17;100569.88;5089088;28;20051;-20
2021/12/18 04:35:10;;;;;;;27.73;13.80;;;;;;;2.98;81.20;100599.75;5089296;28;20028;-21
2021/12/18 04:37:36;;;;;;;30.77;15.18;;;;;;;2.64;83.74;100591.81;5088767;28;20040;-20
2021/12/18 04:40:01;;;;;;;26.63;13.52;;;;;;;2.26;85.12;100589.38;5089216;28;20028;-20
2021/12/18 04:42:27;;;;;;;22.63;10.23;;;;;;;2.46;83.48;100570.78;5089225;28;20031;-20
2021/12/18 04:44:52;;;;;;;27.40;12.60;;;;;;;2.97;82.61;100580.50;5089048;28;20085;-26
2021/12/18 04:47:18;;;;;;;32.30;14.35;;;;;;;3.05;81.59;100600.78;5089135;28;20039;-20
2021/12/18 04:49:43;;;;;;;27.70;12.48;;;;;;;3.00;80.94;100609.19;5088634;28;20070;-20
2021/12/18 04:52:09;;;;;;;32.60;15.95;;;;;;;3.30;80.16;100608.81;5088948;28;20028;-20
2021/12/18 04:54:34;;;;;;;39.08;20.15;;;;;;;3.42;79.48;100615.47;5089004;28;20055;-20
2021/12/18 04:57:00;;;;;;;56.20;27.70;;;;;;;3.33;80.56;100613.75;5070766;28;20040;-21
2021/12/18 04:59:25;;;;;;;51.70;27.50;;;;;;;3.28;80.61;100623.97;5088587;28;20475;-21
2021/12/18 05:01:52;;;;;;;54.33;29.42;;;;;;;3.13;80.76;100627.19;5088800;28;20473;-20
2021/12/18 05:04:17;;;;;;;52.90;27.58;;;;;;;2.49;82.83;100594.16;5088826;28;20475;-21
2021/12/18 05:06:45;;;;;;;49.40;25.42;;;;;;;2.86;82.35;100633.47;5088515;28;20036;-20
2021/12/18 05:09:14;;;;;;;57.45;28.15;;;;;;;3.02;81.14;100627.44;5088682;28;20024;-20
2021/12/18 05:11:40;;;;;;;38.13;18.05;;;;;;;2.74;81.80;100614.44;5088304;28;20036;-21
2021/12/18 05:14:06;;;;;;;50.40;26.83;;;;;;;2.61;83.14;100629.81;5088482;28;20027;-20
2021/12/18 05:16:32;;;;;;;36.83;19.80;;;;;;;2.69;83.38;100624.59;5088714;28;20032;-20
2021/12/18 05:18:57;;;;;;;29.33;13.90;;;;;;;2.70;83.75;100630.72;5088498;28;20027;-20
2021/12/18 05:21:23;;;;;;;26.77;13.15;;;;;;;3.00;82.11;100634.69;5087886;28;20032;-22
2021/12/18 05:23:48;;;;;;;31.10;14.30;;;;;;;3.17;80.49;100628.53;5088279;28;20082;-20
2021/12/18 05:26:14;;;;;;;26.85;12.30;;;;;;;3.08;80.68;100637.34;5069477;28;20046;-21
2021/12/18 05:28:39;;;;;;;27.95;13.07;;;;;;;3.09;80.68;100646.94;5053162;28;20052;-20
2021/12/18 05:31:05;;;;;;;29.65;14.20;;;;;;;3.13;80.25;100643.00;5088236;28;20531;-20
2021/12/18 05:33:30;;;;;;;47.45;23.95;;;;;;;2.92;81.67;100637.25;5088264;28;20032;-22
2021/12/18 05:35:56;;;;;;;67.03;30.08;;;;;;;3.10;81.00;100614.31;5088233;28;20835;-20
2021/12/18 05:38:21;;;;;;;56.72;28.80;;;;;;;3.11;80.00;100629.16;5088347;28;20028;-20
2021/12/18 05:40:47;;;;;;;55.45;29.60;;;;;;;2.75;81.58;100599.47;5088154;28;20024;-20
2021/12/18 05:43:12;;;;;;;56.25;28.85;;;;;;;2.48;82.51;100630.22;5069925;28;20028;-20
2021/12/18 05:45:38;;;;;;;32.63;18.20;;;;;;;1.92;85.09;100623.44;5087832;28;20484;-20
2021/12/18 05:48:04;;;;;;;61.83;35.30;;;;;;;1.68;86.51;100637.16;5069823;28;20113;-21
2021/12/18 05:50:29;;;;;;;45.78;30.58;;;;;;;1.64;87.20;100625.28;5087746;28;20063;-20
2021/12/18 05:52:56;;;;;;;27.77;14.68;;;;;;;1.46;87.66;100649.72;5088140;28;20043;-20
2021/12/18 05:55:24;;;;;;;30.48;14.52;;;;;;;1.44;88.52;100640.31;5088353;28;20058;-21
2021/12/18 05:57:49;;;;;;;33.75;15.40;;;;;;;1.57;88.35;100646.91;5088056;28;20028;-20
2021/12/18 06:00:15;;;;;;;32.47;13.98;;;;;;;1.51;87.91;100633.50;5087907;28;20047;-20
2021/12/18 06:02:41;;;;;;;28.45;11.85;;;;;;;1.61;87.78;100647.41;5070118;28;20557;-20
2021/12/18 06:05:07;;;;;;;30.42;13.07;;;;;;;1.50;88.56;100647.63;5069610;28;20032;-20
2021/12/18 06:07:43;;;;;;;31.48;12.88;;;;;;;1.74;87.01;100657.59;5087712;28;20031;-20
2021/12/18 06:10:09;;;;;;;30.70;13.63;;;;;;;1.69;87.89;100644.06;5087899;28;20024;-20
2021/12/18 06:12:34;;;;;;;58.70;27.60;;;;;;;1.69;87.47;100649.31;5087811;28;20062;-20
2021/12/18 06:15:00;;;;;;;95.90;42.25;;;;;;;1.79;86.79;100650.09;5069902;28;20491;-20
2021/12/18 06:17:25;;;;;;;77.60;36.95;;;;;;;1.85;86.94;100665.28;5069473;28;20031;-21
2021/12/18 06:19:51;;;;;;;53.33;25.83;;;;;;;1.67;87.70;100664.41;5087744;28;20385;-20
2021/12/18 06:22:16;;;;;;;50.22;23.55;;;;;;;1.86;87.60;100672.22;5087650;28;20047;-21
2021/12/18 06:24:42;;;;;;;42.30;19.63;;;;;;;1.81;87.78;100679.69;5070013;28;20032;-21
2021/12/18 06:27:07;;;;;;;30.23;12.80;;;;;;;1.95;87.37;100684.47;5087619;28;20032;-21
2021/12/18 06:29:34;;;;;;;23.70;11.13;;;;;;;1.95;87.17;100681.84;5087228;28;20056;-20
2021/12/18 06:32:00;;;;;;;28.38;12.00;;;;;;;1.95;87.34;100678.38;5087745;28;20043;-20
2021/12/18 06:34:25;;;;;;;27.73;11.80;;;;;;;2.18;86.75;100692.75;5087645;28;20040;-21
2021/12/18 06:36:50;;;;;;;30.27;13.10;;;;;;;2.59;85.14;100684.44;5087921;28;20029;-20
2021/12/18 06:39:16;;;;;;;30.83;12.38;;;;;;;2.75;84.07;100705.63;5091235;28;20032;-20
2021/12/18 06:41:41;;;;;;;27.20;11.93;;;;;;;2.66;83.16;100688.13;5091188;28;20765;-20
2021/12/18 06:44:07;;;;;;;36.60;16.15;;;;;;;2.59;84.10;100689.69;5091463;28;20383;-20
2021/12/18 06:46:32;;;;;;;37.20;18.00;;;;;;;2.93;83.22;100707.44;5091131;28;20031;-20
2021/12/18 06:48:58;;;;;;;45.75;23.05;;;;;;;2.62;83.67;100705.19;5091029;28;20032;-20
2021/12/18 06:51:23;;;;;;;36.85;19.95;;;;;;;2.63;83.48;100709.47;5091491;28;20506;-22
2021/12/18 06:53:49;;;;;;;43.65;23.15;;;;;;;2.62;84.17;100718.38;5091032;28;20123;-21
2021/12/18 06:56:14;;;;;;;40.75;23.45;;;;;;;2.91;83.54;100712.03;5091142;28;20043;-20
2021/12/18 06:58:40;;;;;;;34.38;18.13;;;;;;;2.74;83.26;100711.91;5072948;28;20035;-20
2021/12/18 07:01:05;;;;;;;26.60;14.68;;;;;;;2.84;83.84;100708.31;5091112;28;20475;-20
2021/12/18 07:03:31;;;;;;;30.17;17.00;;;;;;;2.74;83.71;100690.00;5090811;28;20043;-20
2021/12/18 07:05:56;;;;;;;33.25;17.23;;;;;;;2.88;83.36;100714.94;5090924;28;20035;-20
2021/12/18 07:08:22;;;;;;;37.22;20.17;;;;;;;2.95;83.10;100729.19;5090963;28;20036;-21
2021/12/18 07:10:47;;;;;;;39.50;18.35;;;;;;;3.04;83.06;100736.16;5090942;28;20020;-20
2021/12/18 07:13:13;;;;;;;30.13;14.00;;;;;;;2.89;84.40;100729.78;5090656;28;20032;-21
2021/12/18 07:15:38;;;;;;;40.95;19.20;;;;;;;2.92;84.42;100734.75;5090388;28;20032;-20
2021/12/18 07:18:04;;;;;;;34.95;17.00;;;;;;;2.87;85.29;100744.91;5090604;28;20032;-20
2021/12/18 07:20:31;;;;;;;29.65;14.80;;;;;;;2.86;85.70;100746.72;5072574;28;20031;-20
2021/12/18 07:22:56;;;;;;;29.35;15.82;;;;;;;2.81;86.20;100751.63;5090812;28;20031;-20
2021/12/18 07:25:22;;;;;;;27.83;13.98;;;;;;;2.75;86.20;100755.66;5090435;28;20514;-21
2021/12/18 07:27:47;;;;;;;26.05;13.68;;;;;;;2.99;85.78;100755.06;5090131;28;20039;-20
2021/12/18 07:30:13;;;;;;;30.65;15.88;;;;;;;3.36;84.02;100751.38;5090692;28;20028;-20
2021/12/18 07:32:39;;;;;;;28.77;14.73;;;;;;;3.72;81.98;100742.50;5090518;28;20036;-20
2021/12/18 07:35:05;;;;;;;40.55;21.17;;;;;;;3.78;80.52;100765.63;5090266;28;20322;-20
2021/12/18 07:37:31;;;;;;;34.97;17.92;;;;;;;3.81;80.62;100775.88;5072076;28;20039;-21
2021/12/18 07:39:56;;;;;;;36.95;18.35;;;;;;;3.69;81.15;100766.56;5090227;28;20020;-20
2021/12/18 07:42:22;;;;;;;24.20;13.27;;;;;;;3.53;81.35;100781.31;5090074;28;20024;-20
2021/12/18 07:44:47;;;;;;;21.00;10.88;;;;;;;3.52;81.68;100770.94;5089929;28;20032;-20
2021/12/18 07:47:13;;;;;;;23.42;13.63;;;;;;;3.50;82.33;100784.25;5090369;28;20411;-21
2021/12/18 07:49:39;;;;;;;23.55;11.52;;;;;;;3.35;81.90;100768.19;5089023;28;20032;-20
2021/12/18 07:52:04;;;;;;;31.80;14.52;;;;;;;3.65;81.95;100781.06;5089872;28;20115;-20
2021/12/18 07:54:30;;;;;;;59.65;21.58;;;;;;;3.32;81.26;100760.56;5089717;28;20569;-20
2021/12/18 07:56:56;;;;;;;76.45;27.83;;;;;;;3.47;81.55;100784.56;5090107;28;20502;-21
2021/12/18 07:59:21;;;;;;;121.13;45.42;;;;;;;3.82;82.06;100795.97;5089703;28;20039;-20
2021/12/18 08:01:46;;;;;;;20.67;11.77;;;;;;;3.86;80.65;100799.13;5089730;28;20036;-20
2021/12/18 08:04:12;;;;;;;48.40;25.08;;;;;;;4.26;80.56;100814.34;5089787;28;20495;-21
2021/12/18 08:06:37;;;;;;;29.27;16.13;;;;;;;4.33;80.50;100801.31;5089569;28;20097;-20
2021/12/18 08:09:03;;;;;;;45.15;26.27;;;;;;;4.28;79.49;100803.63;5089659;28;20028;-21
2021/12/18 08:11:28;;;;;;;42.00;23.00;;;;;;;3.93;81.14;100816.81;5089460;28;20024;-20
2021/12/18 08:13:54;;;;;;;34.47;17.50;;;;;;;3.58;83.02;100813.34;5089619;28;20031;-20
2021/12/18 08:16:19;;;;;;;26.15;12.95;;;;;;;3.43;82.92;100825.41;5089712;28;20036;-21
2021/12/18 08:18:44;;;;;;;24.75;12.75;;;;;;;3.19;84.85;100797.88;5089608;28;20039;-20
2021/12/18 08:21:10;;;;;;;33.17;14.60;;;;;;;3.54;84.88;100824.34;5089752;28;20031;-21
2021/12/18 08:23:35;;;;;;;30.88;17.45;;;;;;;3.52;83.61;100818.41;5089473;28;20108;-20
2021/12/18 08:26:01;;;;;;;40.50;21.30;;;;;;;3.61;82.93;100818.28;5089427;28;20515;-20
2021/12/18 08:28:26;;;;;;;35.30;19.42;;;;;;;3.63;82.69;100832.13;5089153;28;20419;-20
2021/12/18 08:30:52;;;;;;;39.35;21.08;;;;;;;3.48;83.84;100817.88;5089193;28;20020;-20
2021/12/18 08:33:17;;;;;;;41.28;22.60;;;;;;;3.07;85.43;100825.47;5089446;28;20384;-20
2021/12/18 08:35:43;;;;;;;35.00;19.23;;;;;;;3.35;85.29;100822.69;5089274;28;20028;-20
2021/12/18 08:38:08;;;;;;;33.90;19.17;;;;;;;3.44;84.96;100820.97;5088990;28;20051;-20
2021/12/18 08:40:34;;;;;;;27.73;17.45;;;;;;;3.62;85.03;100819.94;5089606;28;20020;-20
2021/12/18 08:43:00;;;;;;;24.17;12.88;;;;;;;3.63;83.66;100826.88;5070953;28;20497;-21
2021/12/18 08:45:25;;;;;;;27.30;15.00;;;;;;;3.80;84.74;100837.53;5088633;28;20550;-21
2021/12/18 08:47:52;;;;;;;26.88;13.63;;;;;;;3.69;82.53;100832.53;5089254;28;20042;-20
2021/12/18 08:50:18;;;;;;;31.08;17.95;;;;;;;3.82;83.33;100851.38;5088972;28;20081;-21
2021/12/18 08:52:44;;;;;;;31.92;16.67;;;;;;;4.35;82.51;100826.59;5088787;28;20043;-20
2021/12/18 08:55:10;;;;;;;22.20;13.18;;;;;;;4.63;80.97;100847.47;5088947;28;20864;-20
2021/12/18 08:57:35;;;;;;;29.50;15.65;;;;;;;4.67;81.41;100846.16;5087984;28;20036;-20
2021/12/18 09:00:01;;;;;;;22.48;12.57;;;;;;;4.77;79.30;100836.28;5088673;28;20025;-22
2021/12/18 09:02:27;;;;;;;24.30;13.95;;;;;;;5.17;80.74;100837.34;5088896;28;20063;-20
2021/12/18 09:04:52;;;;;;;18.00;9.35;;;;;;;5.00;79.89;100833.00;5088695;28;20038;-20
2021/12/18 09:07:18;;;;;;;18.00;9.98;;;;;;;5.17;80.84;100837.34;5086827;28;20066;-20
2021/12/18 09:09:43;;;;;;;19.95;11.82;;;;;;;5.22;81.88;100802.47;5086957;28;20491;-20
2021/12/18 09:12:09;;;;;;;20.17;11.00;;;;;;;4.96;79.99;100813.19;5087897;28;20043;-20
2021/12/18 09:14:35;;;;;;;20.08;11.75;;;;;;;5.30;80.23;100818.31;5088644;28;20237;-20
2021/12/18 09:17:00;;;;;;;19.75;11.70;;;;;;;5.01;79.38;100817.00;5088722;28;20036;-20
2021/12/18 09:19:26;;;;;;;21.08;11.55;;;;;;;5.14;80.36;100820.97;5088293;28;20039;-21
2021/12/18 09:21:51;;;;;;;18.75;11.07;;;;;;;4.52;81.31;100785.22;5088237;28;20028;-20
2021/12/18 09:24:17;;;;;;;21.58;11.48;;;;;;;4.79;82.12;100823.72;5088021;28;20508;-21
2021/12/18 09:26:42;;;;;;;21.98;12.45;;;;;;;5.15;80.58;100817.31;5088272;28;20062;-28
2021/12/18 09:29:08;;;;;;;19.42;11.70;;;;;;;5.15;81.15;100810.25;5087900;28;20052;-20
2021/12/18 09:31:33;;;;;;;19.13;10.63;;;;;;;5.10;79.53;100823.09;5088223;28;20059;-20
2021/12/18 09:34:00;;;;;;;17.38;10.63;;;;;;;5.28;78.96;100816.84;5088113;28;20051;-20
2021/12/18 09:36:26;;;;;;;17.05;9.10;;;;;;;5.22;77.54;100810.41;5088161;28;20374;-20
2021/12/18 09:38:51;;;;;;;18.65;9.82;;;;;;;5.35;77.85;100812.53;5088220;28;20042;-21
2021/12/18 09:41:16;;;;;;;17.25;10.07;;;;;;;5.21;78.98;100819.31;5087893;28;20089;-20
2021/12/18 09:43:42;;;;;;;17.48;9.27;;;;;;;4.91;78.95;100812.88;5087882;28;20098;-21
2021/12/18 09:46:10;;;;;;;20.25;11.73;;;;;;;4.83;79.75;100803.91;5087909;28;20028;-20
2021/12/18 09:48:36;;;;;;;20.33;12.17;;;;;;;4.65;80.32;100811.16;5088374;28;20030;-20
2021/12/18 09:51:07;;;;;;;19.52;11.52;;;;;;;4.32;81.73;100818.97;5087726;28;20028;-20
2021/12/18 09:53:33;;;;;;;19.45;11.45;;;;;;;4.01;82.26;100803.69;5087696;28;20028;-20
2021/12/18 09:55:58;;;;;;;20.40;10.20;;;;;;;4.15;81.81;100814.63;5053206;28;20031;-20
2021/12/18 09:58:24;;;;;;;18.83;10.60;;;;;;;4.36;82.57;100815.03;5087999;28;20028;-20
2021/12/18 10:00:49;;;;;;;19.23;11.60;;;;;;;4.17;81.76;100787.09;5088162;28;20430;-20
2021/12/18 10:03:15;;;;;;;18.40;10.88;;;;;;;4.70;81.56;100815.94;5070143;28;20032;-20
2021/12/18 10:05:40;;;;;;;17.65;10.50;;;;;;;4.99;80.97;100812.88;5087628;28;20093;-20
2021/12/18 10:08:12;;;;;;;25.55;12.85;;;;;;;5.07;80.35;100820.81;5087853;28;20036;-21
2021/12/18 10:10:38;;;;;;;21.52;11.25;;;;;;;4.94;78.37;100809.88;5088001;28;20471;-21
2021/12/18 10:13:08;;;;;;;15.95;9.27;;;;;;;4.26;79.19;100769.47;5089448;28;20514;-20
2021/12/18 10:15:34;;;;;;;16.98;10.32;;;;;;;4.38;79.81;100802.50;5092111;28;20042;-20
2021/12/18 10:18:04;;;;;;;18.17;10.00;;;;;;;4.51;80.16;100783.53;5092118;28;20043;-20
2021/12/18 10:20:29;;;;;;;17.27;9.00;;;;;;;5.32;77.73;100797.84;5091922;28;20106;-20
2021/12/18 10:22:57;;;;;;;16.85;9.48;;;;;;;6.06;76.83;100804.81;5091977;28;20039;-20
2021/12/18 10:25:31;;;;;;;15.50;8.75;;;;;;;6.40;73.64;100786.78;5091644;28;20055;-21
2021/12/18 10:28:02;;;;;;;15.88;9.38;;;;;;;6.66;72.58;100790.97;5091735;28;20028;-20
2021/12/18 10:30:28;;;;;;;14.77;8.57;;;;;;;6.39;73.10;100779.81;5091576;28;20626;-21
2021/12/18 10:32:59;;;;;;;12.90;7.18;;;;;;;6.28;69.11;100782.06;5091624;28;20039;-20
2021/12/18 10:35:41;;;;;;;13.55;7.28;;;;;;;6.02;72.06;100799.84;5091558;28;20030;-20
2021/12/18 10:38:06;;;;;;;9.27;4.85;;;;;;;5.62;70.27;100785.72;5091581;28;20407;-21
2021/12/18 10:40:45;;;;;;;9.77;5.60;;;;;;;5.55;71.14;100787.38;5091973;28;20542;-20
2021/12/18 10:43:15;;;;;;;67.13;40.20;;;;;;;5.94;69.04;100765.44;5091511;28;20062;-20
2021/12/18 10:45:41;;;;;;;38.85;26.85;;;;;;;6.29;67.74;100775.75;5091132;28;20113;-20
2021/12/18 10:48:08;;;;;;;26.08;15.85;;;;;;;6.90;65.30;100778.53;5091248;28;20483;-20
2021/12/18 10:50:46;;;;;;;61.85;29.23;;;;;;;7.22;63.48;100778.25;5091191;28;20036;-20
2021/12/18 10:53:17;;;;;;;93.85;38.65;;;;;;;7.17;63.43;100771.84;5090933;28;20028;-20
2021/12/18 10:55:43;;;;;;;166.57;68.20;;;;;;;7.21;63.66;100781.94;5089856;28;20051;-20
2021/12/18 10:58:12;;;;;;;42.30;24.52;;;;;;;7.06;64.12;100761.66;5091218;28;20031;-21
2021/12/18 11:00:44;;;;;;;96.78;52.08;;;;;;;6.80;65.76;100782.25;5091095;28;20028;-21
2021/12/18 11:03:20;;;;;;;21.55;13.70;;;;;;;5.91;69.38;100757.84;5090917;28;20085;-20
2021/12/18 11:06:07;;;;;;;35.58;26.05;;;;;;;6.24;70.87;100778.94;5090756;28;20032;-21
2021/12/18 11:08:34;;;;;;;22.00;17.20;;;;;;;5.56;69.73;100757.28;5091241;28;20122;-20
2021/12/18 11:13:38;;;;;;;26.17;19.52;;;;;;;5.72;70.70;100755.59;5091172;28;20565;-20
2021/12/18 11:13:48;;;;;;;22.40;20.02;;;;;;;5.82;71.43;100774.75;5090844;28;20032;-20
2021/12/18 11:16:14;;;;;;;22.67;14.20;;;;;;;5.52;71.44;100771.84;5091211;28;20144;-20
2021/12/18 11:18:40;;;;;;;30.08;15.30;;;;;;;5.62;72.44;100761.91;5090895;28;20807;-20
2021/12/18 11:21:05;;;;;;;21.50;12.48;;;;;;;5.68;71.24;100770.16;5056337;28;20057;-20
2021/12/18 11:23:39;;;;;;;29.63;15.60;;;;;;;5.70;70.32;100762.88;5071817;28;20102;-21
2021/12/18 11:26:08;;;;;;;38.60;20.13;;;;;;;5.84;70.67;100743.63;5090007;28;20039;-20
2021/12/18 11:28:35;;;;;;;17.55;9.38;;;;;;;6.29;70.27;100758.03;5090441;28;20508;-21
2021/12/18 11:31:02;;;;;;;26.15;13.57;;;;;;;7.02;68.11;100769.16;5072484;28;20027;-21
2021/12/18 11:33:27;;;;;;;109.25;43.25;;;;;;;7.14;66.94;100759.75;5090331;28;20036;-20
2021/12/18 11:35:52;;;;;;;48.72;21.95;;;;;;;6.93;66.77;100754.31;5090695;28;20552;-20
2021/12/18 11:38:18;;;;;;;22.02;12.55;;;;;;;6.97;68.65;100771.53;5090394;28;20051;-20
2021/12/18 11:40:44;;;;;;;19.08;11.98;;;;;;;7.31;66.03;100764.94;5055674;28;20031;-20
2021/12/18 11:43:30;;;;;;;20.95;14.48;;;;;;;7.79;65.98;100752.97;5072543;28;20523;-20
2021/12/18 11:45:55;;;;;;;33.15;21.15;;;;;;;8.20;62.59;100765.75;5090224;28;20016;-21
2021/12/18 11:48:21;;;;;;;58.40;33.03;;;;;;;8.15;57.12;100772.63;5090167;28;20028;-20
2021/12/18 11:50:48;;;;;;;56.38;34.08;;;;;;;7.89;58.16;100752.72;5071937;28;20031;-20
2021/12/18 11:53:13;;;;;;;248.75;68.95;;;;;;;7.57;56.47;100767.97;5090245;28;20032;-20
2021/12/18 11:55:50;;;;;;;105.32;58.25;;;;;;;6.70;59.74;100775.50;5089772;28;20831;-20
2021/12/18 11:58:26;;;;;;;34.13;17.27;;;;;;;6.60;58.68;100775.75;5089892;28;20089;-21
2021/12/18 12:00:55;;;;;;;40.83;22.67;;;;;;;6.25;57.87;100748.78;5090119;28;20063;-20
2021/12/18 12:03:52;;;;;;;150.10;66.03;;;;;;;6.35;57.94;100767.94;5089971;28;20139;-21
2021/12/18 12:06:20;;;;;;;224.27;71.93;;;;;;;6.36;58.48;100764.28;5090006;28;20024;-21